Time;durP1;ratioP1;P1;durP2;ratioP2;P2;SDS_P1;SDS_P2;PMS_P1;PMS_P2;Temp;Humidity;BMP_temperature;BMP_pressure;BME280_temperature;BME280_humidity;BME280_pressure;Samples;Min_cycle;Max_cycle;Signal;HPM_P1;HPM_P2
2022/06/15 00:00:34;;;;;;;6.18;1.83;;;;;;;15.19;100.00;96771.50;5050480;28;20094;-73
2022/06/15 00:03:00;;;;;;;7.70;1.70;;;;;;;14.96;100.00;96766.66;5048558;28;20214;-71
2022/06/15 00:05:25;;;;;;;7.00;1.80;;;;;;;14.79;100.00;96761.53;5049376;28;20033;-73
2022/06/15 00:07:52;;;;;;;4.72;1.75;;;;;;;14.50;100.00;96761.19;5050510;28;20286;-73
2022/06/15 00:10:19;;;;;;;5.47;1.80;;;;;;;14.44;100.00;96760.34;5049839;28;20041;-72
2022/06/15 00:12:45;;;;;;;6.28;1.90;;;;;;;14.59;100.00;96756.91;5049127;28;20055;-72
2022/06/15 00:15:11;;;;;;;6.22;1.58;;;;;;;14.67;100.00;96759.06;5049745;28;20329;-71
2022/06/15 00:17:36;;;;;;;6.65;1.80;;;;;;;14.73;100.00;96758.00;5051861;28;20072;-72
2022/06/15 00:20:03;;;;;;;6.20;1.90;;;;;;;14.77;100.00;96759.06;5050195;28;20135;-73
2022/06/15 00:22:29;;;;;;;5.30;1.73;;;;;;;14.71;100.00;96752.09;5049198;28;20033;-72
2022/06/15 00:24:54;;;;;;;6.13;1.70;;;;;;;14.67;100.00;96752.88;5049640;28;20036;-72
2022/06/15 00:27:20;;;;;;;5.38;1.73;;;;;;;14.71;100.00;96759.38;5050159;28;20060;-73
2022/06/15 00:29:45;;;;;;;5.13;1.80;;;;;;;14.69;100.00;96756.09;5049052;28;20132;-72
2022/06/15 00:32:11;;;;;;;6.65;1.92;;;;;;;14.68;100.00;96746.41;5047827;28;20075;-73
2022/06/15 00:34:37;;;;;;;3.80;1.70;;;;;;;14.71;100.00;96744.00;5049026;28;20059;-72
2022/06/15 00:37:05;;;;;;;7.18;1.58;;;;;;;14.79;100.00;96755.34;5049148;28;20131;-72
2022/06/15 00:39:32;;;;;;;3.17;1.50;;;;;;;14.68;100.00;96747.22;5049736;28;20037;-73
2022/06/15 00:41:58;;;;;;;6.03;1.52;;;;;;;14.64;100.00;96746.16;5051940;28;20044;-73
2022/06/15 00:44:24;;;;;;;5.68;1.70;;;;;;;14.54;100.00;96756.88;5049474;28;20060;-72
2022/06/15 00:46:58;;;;;;;7.10;1.52;;;;;;;14.48;100.00;96761.47;5034497;28;20041;-73
2022/06/15 00:49:50;;;;;;;7.63;1.92;;;;;;;14.40;100.00;96750.38;5046627;28;20149;-73
2022/06/15 00:52:44;;;;;;;4.80;1.70;;;;;;;14.33;100.00;96744.44;5036247;28;20647;-73
2022/06/15 00:55:19;;;;;;;9.25;2.00;;;;;;;14.21;100.00;96750.84;5048754;28;20292;-71
2022/06/15 00:57:45;;;;;;;6.60;1.67;;;;;;;14.15;100.00;96738.44;5051855;28;20047;-72
2022/06/15 01:00:12;;;;;;;5.55;1.70;;;;;;;14.24;100.00;96746.84;5048568;28;20139;-72
2022/06/15 01:02:39;;;;;;;8.15;1.50;;;;;;;14.21;100.00;96739.28;5050511;28;20050;-73
2022/06/15 01:05:12;;;;;;;6.10;1.48;;;;;;;14.16;100.00;96739.25;5047747;28;20120;-73
2022/06/15 01:07:58;;;;;;;5.28;1.33;;;;;;;14.14;100.00;96738.72;5039382;28;20048;-72
2022/06/15 01:10:55;;;;;;;9.07;1.70;;;;;;;14.16;100.00;96740.09;5012589;28;20198;-71
2022/06/15 01:13:29;;;;;;;5.18;1.83;;;;;;;14.16;100.00;96741.94;5049907;28;20036;-71
2022/06/15 01:16:20;;;;;;;4.53;1.67;;;;;;;14.12;100.00;96730.91;5049175;28;20036;-72
2022/06/15 01:19:08;;;;;;;8.02;1.90;;;;;;;14.08;100.00;96735.19;5047882;28;20073;-72
2022/06/15 01:21:50;;;;;;;4.15;1.67;;;;;;;14.05;100.00;96724.97;5048946;28;20304;-72
2022/06/15 01:24:29;;;;;;;4.50;1.40;;;;;;;14.01;100.00;96740.03;5047425;28;20480;-72
2022/06/15 01:27:26;;;;;;;3.58;1.42;;;;;;;13.99;100.00;96726.00;5049695;28;20401;-71
2022/06/15 01:30:03;;;;;;;4.43;1.70;;;;;;;14.03;100.00;96731.69;5048452;28;20102;-72
2022/06/15 01:32:53;;;;;;;5.85;1.40;;;;;;;14.02;100.00;96724.69;5062918;28;20045;-71
2022/06/15 01:35:32;;;;;;;11.77;2.00;;;;;;;14.00;100.00;96718.75;5048722;28;20173;-72
2022/06/15 01:38:22;;;;;;;5.72;1.70;;;;;;;14.05;100.00;96724.16;5049242;28;20051;-71
2022/06/15 01:41:06;;;;;;;9.85;1.90;;;;;;;13.88;100.00;96724.34;5047695;28;20166;-71
2022/06/15 01:43:36;;;;;;;4.28;1.50;;;;;;;13.94;100.00;96718.75;5064266;28;20051;-72
2022/06/15 01:46:04;;;;;;;5.07;1.80;;;;;;;13.90;100.00;96723.03;5064424;28;20604;-71
2022/06/15 01:48:33;;;;;;;7.20;1.67;;;;;;;13.87;100.00;96720.88;5033646;28;20102;-72
2022/06/15 01:51:05;;;;;;;4.03;1.50;;;;;;;13.89;100.00;96718.72;5063414;28;20423;-72
2022/06/15 01:53:36;;;;;;;6.65;1.50;;;;;;;13.82;100.00;96717.34;5061885;28;20041;-73
2022/06/15 01:56:11;;;;;;;3.72;1.60;;;;;;;13.73;100.00;96717.03;5064698;28;20037;-71
2022/06/15 01:58:41;;;;;;;4.22;1.58;;;;;;;13.80;100.00;96722.97;5038341;28;20119;-71
2022/06/15 02:01:21;;;;;;;6.22;1.67;;;;;;;13.80;100.00;96714.09;5064646;28;20236;-71
2022/06/15 02:03:55;;;;;;;6.82;1.38;;;;;;;13.88;100.00;96719.78;5037655;28;20238;-72
2022/06/15 02:06:36;;;;;;;5.03;1.60;;;;;;;13.86;100.00;96711.19;5031843;28;20044;-71
2022/06/15 02:09:29;;;;;;;6.72;1.80;;;;;;;13.88;100.00;96713.59;5063075;28;20380;-71
2022/06/15 02:11:57;;;;;;;8.48;1.45;;;;;;;13.88;100.00;96716.28;5064094;28;20041;-72
2022/06/15 02:14:29;;;;;;;4.65;1.30;;;;;;;13.82;100.00;96715.44;5048901;28;20116;-72
2022/06/15 02:17:06;;;;;;;4.13;1.30;;;;;;;13.80;100.00;96716.78;5033072;28;20045;-71
2022/06/15 02:19:39;;;;;;;6.40;1.75;;;;;;;13.73;100.00;96713.53;5053564;28;20047;-72
2022/06/15 02:22:27;;;;;;;7.55;1.60;;;;;;;13.78;100.00;96711.69;5047957;28;20036;-71
2022/06/15 02:24:55;;;;;;;4.82;1.70;;;;;;;13.70;100.00;96717.56;5045928;28;20037;-71
2022/06/15 02:27:25;;;;;;;7.20;1.75;;;;;;;13.68;100.00;96714.31;5027878;28;20139;-71
2022/06/15 02:29:59;;;;;;;4.68;1.75;;;;;;;13.59;100.00;96699.75;5045966;28;20094;-70
2022/06/15 02:32:24;;;;;;;3.60;1.50;;;;;;;13.57;100.00;96713.47;5045975;28;20068;-71
2022/06/15 02:34:50;;;;;;;12.18;1.73;;;;;;;13.48;100.00;96706.97;5048889;28;20491;-70
2022/06/15 02:37:16;;;;;;;5.13;1.35;;;;;;;13.53;100.00;96706.97;5030442;28;20045;-70
2022/06/15 02:39:42;;;;;;;6.43;1.50;;;;;;;13.44;100.00;96703.16;5029656;28;20067;-71
2022/06/15 02:42:32;;;;;;;5.30;1.80;;;;;;;13.43;100.00;96695.38;5062849;28;20495;-71
2022/06/15 02:45:07;;;;;;;4.55;1.40;;;;;;;13.43;100.00;96698.84;5062221;28;20092;-71
2022/06/15 02:47:38;;;;;;;5.32;1.70;;;;;;;13.38;100.00;96696.13;5030865;28;20049;-71
2022/06/15 02:50:07;;;;;;;5.18;1.67;;;;;;;13.40;100.00;96691.31;5062050;28;20083;-74
2022/06/15 02:52:38;;;;;;;7.10;1.98;;;;;;;13.32;100.00;96681.06;5031469;28;20132;-72
2022/06/15 02:55:05;;;;;;;6.43;1.80;;;;;;;13.29;100.00;96682.38;5034009;28;20486;-72
2022/06/15 02:57:42;;;;;;;7.13;1.80;;;;;;;13.29;100.00;96678.88;5036869;28;20041;-71
2022/06/15 03:00:09;;;;;;;3.67;1.48;;;;;;;13.28;100.00;96680.75;5060176;28;20036;-71
2022/06/15 03:02:35;;;;;;;5.20;2.10;;;;;;;13.26;100.00;96674.03;5063990;28;20067;-71
2022/06/15 03:05:01;;;;;;;4.28;1.80;;;;;;;13.28;100.00;96679.97;5046153;28;20051;-71
2022/06/15 03:07:27;;;;;;;3.88;1.55;;;;;;;13.31;100.00;96682.94;5029839;28;20041;-71
2022/06/15 03:09:55;;;;;;;4.30;1.30;;;;;;;13.25;100.00;96673.22;5043803;28;20299;-73
2022/06/15 03:12:22;;;;;;;3.95;1.63;;;;;;;13.32;100.00;96673.00;5047919;28;20273;-73
2022/06/15 03:14:48;;;;;;;5.43;1.35;;;;;;;13.22;100.00;96679.09;5051938;28;20033;-70
2022/06/15 03:17:15;;;;;;;3.33;1.30;;;;;;;13.22;100.00;96672.94;5065536;28;20136;-72
2022/06/15 03:19:48;;;;;;;7.18;1.63;;;;;;;13.23;100.00;96669.16;5049866;28;20048;-71
2022/06/15 03:22:16;;;;;;;4.00;1.73;;;;;;;13.21;100.00;96684.75;5049048;28;20812;-70
2022/06/15 03:24:46;;;;;;;6.88;1.75;;;;;;;13.26;100.00;96682.09;5039293;28;20550;-70
2022/06/15 03:27:13;;;;;;;3.97;1.67;;;;;;;13.26;100.00;96682.09;5050585;28;20544;-70
2022/06/15 03:29:42;;;;;;;4.50;1.90;;;;;;;13.23;100.00;96682.59;5031943;28;20044;-72
2022/06/15 03:32:14;;;;;;;4.53;1.95;;;;;;;13.22;100.00;96683.69;5065736;28;20029;-70
2022/06/15 03:34:49;;;;;;;4.07;1.30;;;;;;;13.11;100.00;96683.59;5064003;28;20036;-71
2022/06/15 03:37:15;;;;;;;3.95;1.50;;;;;;;13.10;100.00;96681.16;5066997;28;20451;-72
2022/06/15 03:39:43;;;;;;;4.80;1.65;;;;;;;13.13;100.00;96677.94;5032348;28;20040;-71
2022/06/15 03:42:14;;;;;;;3.30;1.35;;;;;;;13.18;100.00;96677.19;5034126;28;20434;-70
2022/06/15 03:44:42;;;;;;;5.63;1.50;;;;;;;13.20;100.00;96681.25;5035745;28;20037;-72
2022/06/15 03:47:18;;;;;;;5.13;1.63;;;;;;;13.27;100.00;96687.22;5067043;28;20464;-70
2022/06/15 03:49:47;;;;;;;6.03;1.70;;;;;;;13.32;100.00;96681.88;5065600;28;20049;-70
2022/06/15 03:52:13;;;;;;;4.78;1.77;;;;;;;13.33;100.00;96685.38;5033427;28;20048;-71
2022/06/15 03:54:39;;;;;;;4.95;1.75;;;;;;;13.28;100.00;96688.03;5064029;28;20206;-71
2022/06/15 03:57:06;;;;;;;6.00;1.42;;;;;;;13.24;100.00;96674.31;5048567;28;20128;-71
2022/06/15 03:59:35;;;;;;;4.88;1.30;;;;;;;13.35;100.00;96678.66;5062420;28;20029;-70
2022/06/15 04:02:12;;;;;;;3.88;1.40;;;;;;;13.40;100.00;96685.94;5040039;28;20037;-70
2022/06/15 04:04:40;;;;;;;8.10;1.67;;;;;;;13.36;100.00;96690.22;5034479;28;20700;-71
2022/06/15 04:08:34;;;;;;;4.90;1.52;;;;;;;13.33;100.00;96678.13;5049168;28;20488;-72
2022/06/15 04:09:55;;;;;;;5.05;1.42;;;;;;;13.35;100.00;96677.84;5030643;28;20051;-71
2022/06/15 04:12:21;;;;;;;6.07;1.58;;;;;;;13.38;100.00;96680.00;5049775;28;20509;-72
2022/06/15 04:14:48;;;;;;;4.82;1.63;;;;;;;13.42;100.00;96688.38;5064703;28;20051;-72
2022/06/15 04:17:37;;;;;;;3.92;1.80;;;;;;;13.35;100.00;96667.09;5050764;28;20037;-71
2022/06/15 04:20:33;;;;;;;7.20;1.65;;;;;;;13.34;100.00;96682.41;5034294;28;20551;-71
2022/06/15 04:23:14;;;;;;;2.90;1.30;;;;;;;13.32;100.00;96678.38;5032474;28;20049;-71
2022/06/15 04:25:51;;;;;;;4.97;1.38;;;;;;;13.40;100.00;96680.56;5064580;28;20482;-71
2022/06/15 04:28:19;;;;;;;4.28;1.60;;;;;;;13.35;100.00;96678.66;5047860;28;20499;-71
2022/06/15 04:30:47;;;;;;;8.85;1.70;;;;;;;13.41;100.00;96682.19;5063166;28;20135;-71
2022/06/15 04:33:13;;;;;;;4.70;1.45;;;;;;;13.48;100.00;96680.09;5049513;28;20036;-71
2022/06/15 04:35:39;;;;;;;4.30;1.52;;;;;;;13.53;100.00;96679.28;5033014;28;20120;-71
2022/06/15 04:38:12;;;;;;;3.97;1.48;;;;;;;13.57;100.00;96677.69;5036754;28;20511;-71
2022/06/15 04:40:49;;;;;;;4.45;1.50;;;;;;;13.63;100.00;96677.47;5066755;28;20048;-71
2022/06/15 04:43:15;;;;;;;6.28;1.83;;;;;;;13.72;100.00;96666.19;5064629;28;20044;-70
2022/06/15 04:45:40;;;;;;;4.88;1.60;;;;;;;13.70;100.00;96673.72;5045504;28;20033;-72
2022/06/15 04:48:12;;;;;;;3.58;1.40;;;;;;;13.73;100.00;96673.19;5032119;28;20315;-71
2022/06/15 04:50:40;;;;;;;4.22;1.45;;;;;;;13.80;100.00;96665.69;5065067;28;20075;-72
2022/06/15 04:53:07;;;;;;;4.85;1.60;;;;;;;13.87;100.00;96675.13;5031478;28;20478;-71
2022/06/15 04:55:34;;;;;;;3.40;1.27;;;;;;;13.89;100.00;96680.25;5063827;28;20040;-73
2022/06/15 04:58:01;;;;;;;5.40;1.40;;;;;;;13.95;100.00;96673.81;5038725;28;20384;-72
2022/06/15 05:00:31;;;;;;;7.88;1.75;;;;;;;14.04;100.00;96682.19;5064165;28;20123;-72
2022/06/15 05:02:57;;;;;;;5.50;1.40;;;;;;;14.08;100.00;96681.38;5033769;28;20048;-71
2022/06/15 05:05:23;;;;;;;8.23;1.60;;;;;;;14.13;100.00;96677.91;5050869;28;20048;-71
2022/06/15 05:07:49;;;;;;;3.80;1.25;;;;;;;14.16;100.00;96678.19;5065210;28;20048;-72
2022/06/15 05:10:18;;;;;;;4.03;1.55;;;;;;;14.29;100.00;96681.44;5038142;28;20441;-73
2022/06/15 05:12:46;;;;;;;3.78;1.30;;;;;;;14.34;100.00;96684.13;5065492;28;20033;-73
2022/06/15 05:15:13;;;;;;;4.72;1.80;;;;;;;14.44;100.00;96684.16;5048435;28;20331;-71
2022/06/15 05:17:41;;;;;;;9.27;2.22;;;;;;;14.56;100.00;96689.31;5050301;28;20116;-71
2022/06/15 05:20:09;;;;;;;8.05;1.40;;;;;;;14.64;100.00;96692.28;5038071;28;20072;-73
2022/06/15 05:22:36;;;;;;;4.18;1.35;;;;;;;14.76;100.00;96690.13;5032244;28;20583;-71
2022/06/15 05:25:05;;;;;;;6.97;1.52;;;;;;;14.88;100.00;96687.16;5047437;28;20064;-72
2022/06/15 05:27:32;;;;;;;4.63;1.52;;;;;;;15.02;100.00;96684.75;5027547;28;20568;-71
2022/06/15 05:29:58;;;;;;;4.30;1.50;;;;;;;15.12;100.00;96690.13;5063544;28;20049;-72
2022/06/15 05:32:25;;;;;;;5.43;1.50;;;;;;;15.24;100.00;96693.31;5047785;28;20041;-72
2022/06/15 05:34:51;;;;;;;3.42;1.30;;;;;;;15.36;100.00;96692.22;5030490;28;20047;-73
2022/06/15 05:37:18;;;;;;;4.57;1.67;;;;;;;15.50;100.00;96688.69;5047988;28;20102;-72
2022/06/15 05:39:43;;;;;;;5.53;1.58;;;;;;;15.59;100.00;96687.03;5062506;28;20041;-72
2022/06/15 05:42:09;;;;;;;5.93;1.67;;;;;;;15.72;100.00;96685.69;5048015;28;20111;-72
2022/06/15 05:47:02;;;;;;;6.18;1.40;;;;;;;15.96;100.00;96683.16;5028441;28;20049;-71
2022/06/15 05:49:42;;;;;;;5.53;1.52;;;;;;;16.12;100.00;96689.28;5048015;28;20044;-71
2022/06/15 05:52:09;;;;;;;3.80;1.20;;;;;;;16.23;100.00;96693.53;5037681;28;20032;-71
2022/06/15 05:54:37;;;;;;;4.72;1.60;;;;;;;16.35;100.00;96694.03;5063713;28;20553;-72
2022/06/15 05:57:18;;;;;;;5.18;1.67;;;;;;;16.47;100.00;96693.66;5048056;28;20048;-73
2022/06/15 05:59:44;;;;;;;7.43;1.40;;;;;;;16.57;100.00;96692.78;5045767;28;20037;-73
2022/06/15 06:02:14;;;;;;;5.28;1.48;;;;;;;16.68;100.00;96689.75;5046105;28;20045;-72
2022/06/15 06:04:40;;;;;;;4.78;1.73;;;;;;;16.79;100.00;96695.91;5050210;28;20040;-74
2022/06/15 06:07:06;;;;;;;3.03;1.20;;;;;;;16.88;100.00;96693.41;5049076;28;20044;-72
2022/06/15 06:09:32;;;;;;;4.68;1.50;;;;;;;16.97;100.00;96695.22;5048283;28;20134;-73
2022/06/15 06:11:58;;;;;;;2.75;1.40;;;;;;;17.07;100.00;96699.72;5049988;28;20475;-71
2022/06/15 06:14:23;;;;;;;4.70;1.50;;;;;;;17.15;100.00;96693.72;5049446;28;20074;-71
2022/06/15 06:16:49;;;;;;;4.80;1.52;;;;;;;17.25;100.00;96692.81;5050321;28;20028;-71
2022/06/15 06:19:15;;;;;;;4.15;1.20;;;;;;;17.33;100.00;96683.25;5046610;28;20045;-71
2022/06/15 06:21:42;;;;;;;3.67;1.40;;;;;;;17.37;100.00;96693.22;5050904;28;20072;-72
2022/06/15 06:24:08;;;;;;;3.80;1.67;;;;;;;17.44;100.00;96688.28;5046675;28;20037;-73
2022/06/15 06:26:35;;;;;;;3.92;1.30;;;;;;;17.53;100.00;96689.28;5047485;28;20044;-73
2022/06/15 06:29:00;;;;;;;4.47;1.48;;;;;;;17.64;100.00;96697.28;5047653;28;20057;-71
2022/06/15 06:31:27;;;;;;;3.70;1.38;;;;;;;17.73;100.00;96688.25;5049106;28;20605;-72
2022/06/15 06:33:52;;;;;;;3.00;1.55;;;;;;;17.81;99.20;96689.53;5047777;28;20037;-72
2022/06/15 06:36:32;;;;;;;3.63;1.25;;;;;;;17.93;98.48;96681.81;5050034;28;20060;-73
2022/06/15 06:39:00;;;;;;;5.53;1.50;;;;;;;18.04;96.44;96691.41;5046931;28;20078;-73
2022/06/15 06:41:28;;;;;;;3.45;1.40;;;;;;;18.13;98.11;96686.13;5050647;28;20071;-72
2022/06/15 06:43:53;;;;;;;3.15;1.30;;;;;;;18.23;95.04;96685.22;5046777;28;20036;-73
2022/06/15 06:46:19;;;;;;;6.93;1.73;;;;;;;18.30;89.59;96696.50;5048342;28;20036;-72
2022/06/15 06:48:45;;;;;;;4.60;1.48;;;;;;;18.37;93.20;96700.47;5048382;28;20045;-73
2022/06/15 06:51:11;;;;;;;4.60;1.35;;;;;;;18.38;93.48;96698.56;5048754;28;20234;-71
2022/06/15 06:53:37;;;;;;;4.20;1.40;;;;;;;18.47;92.71;96696.78;5048513;28;20094;-72
2022/06/15 06:56:05;;;;;;;11.55;1.55;;;;;;;18.56;92.15;96691.53;5049370;28;20037;-72
2022/06/15 06:58:31;;;;;;;4.45;1.50;;;;;;;18.65;94.08;96692.47;5046330;28;20123;-72
2022/06/15 07:00:56;;;;;;;7.63;1.50;;;;;;;18.73;93.90;96691.81;5046955;28;20053;-73
2022/06/15 07:03:22;;;;;;;6.82;1.75;;;;;;;18.80;93.27;96696.88;5047247;28;20044;-72
2022/06/15 07:05:48;;;;;;;4.32;1.60;;;;;;;18.89;92.96;96698.59;5049191;28;20036;-72
2022/06/15 07:08:14;;;;;;;4.15;1.40;;;;;;;18.94;91.05;96697.72;5046719;28;20048;-71
2022/06/15 07:10:41;;;;;;;5.03;1.65;;;;;;;19.02;92.17;96697.06;5047837;28;20506;-72
2022/06/15 07:13:07;;;;;;;12.00;1.75;;;;;;;19.11;90.18;96699.91;5037787;28;20120;-72
2022/06/15 07:15:32;;;;;;;7.00;1.50;;;;;;;19.18;89.43;96692.19;5047654;28;20125;-72
2022/06/15 07:17:59;;;;;;;5.40;1.85;;;;;;;19.19;89.64;96699.22;5046203;28;20654;-72
2022/06/15 07:20:27;;;;;;;5.10;1.40;;;;;;;19.25;89.15;96700.75;5045210;28;20131;-72
2022/06/15 07:22:52;;;;;;;5.10;1.67;;;;;;;19.31;89.53;96696.84;5048159;28;20041;-72
2022/06/15 07:25:18;;;;;;;6.97;1.65;;;;;;;19.38;90.96;96702.69;5045354;28;20079;-73
2022/06/15 07:27:44;;;;;;;6.03;1.70;;;;;;;19.44;87.49;96700.66;5045821;28;20032;-73
2022/06/15 07:30:13;;;;;;;3.90;1.73;;;;;;;19.50;87.96;96694.03;5046596;28;20571;-71
2022/06/15 07:32:41;;;;;;;4.93;1.42;;;;;;;19.56;88.33;96698.28;5047353;28;20550;-73
2022/06/15 07:35:13;;;;;;;4.30;1.73;;;;;;;19.66;83.30;96711.69;5036671;28;20119;-72
2022/06/15 07:37:38;;;;;;;5.55;1.75;;;;;;;19.76;75.07;96705.25;5048438;28;20037;-71
2022/06/15 07:40:04;;;;;;;9.85;2.00;;;;;;;19.79;79.81;96712.00;5050997;28;20037;-72
2022/06/15 07:42:32;;;;;;;6.03;1.67;;;;;;;19.81;74.22;96712.50;5049095;28;20432;-72
2022/06/15 07:44:57;;;;;;;4.75;1.80;;;;;;;19.86;75.40;96712.41;5044637;28;20045;-73
2022/06/15 07:50:07;;;;;;;6.53;2.25;;;;;;;19.96;81.68;96704.06;5046519;28;20041;-72
2022/06/15 07:52:38;;;;;;;4.13;1.80;;;;;;;20.01;81.28;96712.13;5049974;28;20037;-72
2022/06/15 07:55:07;;;;;;;4.53;1.98;;;;;;;20.06;82.81;96709.28;5048011;28;20056;-73
2022/06/15 07:57:32;;;;;;;6.85;1.90;;;;;;;20.17;83.48;96705.25;5063714;28;20037;-72
2022/06/15 07:59:58;;;;;;;5.70;1.70;;;;;;;20.24;85.08;96704.84;5050659;28;20557;-74
2022/06/15 08:02:23;;;;;;;4.78;1.90;;;;;;;20.30;83.24;96698.97;5049941;28;20440;-74
2022/06/15 08:04:49;;;;;;;5.70;2.13;;;;;;;20.35;85.30;96705.41;5048491;28;20283;-72
2022/06/15 08:07:16;;;;;;;4.80;1.90;;;;;;;20.37;87.72;96700.47;5050248;28;20048;-72
2022/06/15 08:09:43;;;;;;;5.22;1.88;;;;;;;20.44;86.29;96692.75;5052109;28;20048;-74
2022/06/15 08:12:16;;;;;;;4.10;1.80;;;;;;;20.53;84.27;96699.06;5050595;28;20036;-73
2022/06/15 08:14:50;;;;;;;6.22;1.73;;;;;;;20.64;80.46;96702.38;5065732;28;20497;-74
2022/06/15 08:17:26;;;;;;;4.55;1.83;;;;;;;20.78;80.11;96708.56;5046019;28;20090;-73
2022/06/15 08:20:07;;;;;;;6.38;1.90;;;;;;;20.85;81.61;96703.47;5049249;28;20366;-73
2022/06/15 08:22:34;;;;;;;5.40;1.90;;;;;;;20.93;80.57;96702.75;5053482;28;20048;-72
2022/06/15 08:25:01;;;;;;;6.38;1.67;;;;;;;21.01;82.13;96698.47;5052466;28;20114;-72
2022/06/15 08:27:26;;;;;;;5.68;1.88;;;;;;;21.13;82.13;96701.44;5049469;28;20041;-74
2022/06/15 08:29:54;;;;;;;11.40;1.95;;;;;;;21.15;82.08;96701.94;5047719;28;20099;-73
2022/06/15 08:32:20;;;;;;;4.90;2.08;;;;;;;21.21;80.18;96699.91;5046600;28;20045;-72
2022/06/15 08:34:46;;;;;;;6.30;1.95;;;;;;;21.25;78.76;96695.47;5048957;28;20045;-72
2022/06/15 08:37:14;;;;;;;5.95;2.30;;;;;;;21.32;79.29;96695.81;5052711;28;20032;-72
2022/06/15 08:39:40;;;;;;;5.20;2.33;;;;;;;21.38;82.46;96695.38;5050665;28;20036;-72
2022/06/15 08:42:11;;;;;;;7.70;1.95;;;;;;;21.43;74.14;96697.19;5048756;28;20060;-72
2022/06/15 08:44:48;;;;;;;6.65;2.00;;;;;;;21.41;75.54;96686.63;5049077;28;20102;-72
2022/06/15 08:47:59;;;;;;;6.25;2.10;;;;;;;21.63;78.07;96699.38;5047681;28;20045;-72
2022/06/15 08:50:35;;;;;;;10.68;1.88;;;;;;;21.65;74.39;96699.06;5027962;28;20509;-73
2022/06/15 08:53:10;;;;;;;6.22;2.10;;;;;;;21.55;71.94;96705.56;5051382;28;20131;-72
2022/06/15 08:55:43;;;;;;;5.05;2.22;;;;;;;21.65;66.76;96704.50;5048002;28;20048;-72
2022/06/15 08:58:25;;;;;;;5.55;2.00;;;;;;;21.74;77.02;96699.09;5048352;28;20036;-74
2022/06/15 09:00:54;;;;;;;11.52;2.00;;;;;;;21.89;75.54;96695.94;5050928;28;20119;-73
2022/06/15 09:03:29;;;;;;;4.72;1.95;;;;;;;22.07;72.31;96699.53;5052292;28;20029;-73
2022/06/15 09:06:32;;;;;;;9.95;2.67;;;;;;;22.07;71.07;96694.06;5047306;28;20033;-73
2022/06/15 09:09:00;;;;;;;7.13;2.72;;;;;;;22.17;72.05;96701.97;5049498;28;20442;-72
2022/06/15 09:11:38;;;;;;;8.18;2.35;;;;;;;22.15;71.18;96712.41;5047489;28;20044;-73
2022/06/15 09:14:22;;;;;;;6.38;2.28;;;;;;;22.24;72.74;96705.84;4698101;28;10000186;-74
2022/06/15 09:17:06;;;;;;;4.15;1.95;;;;;;;22.42;69.78;96705.91;5046922;28;20045;-73
2022/06/15 09:19:38;;;;;;;9.63;2.60;;;;;;;22.56;64.43;96705.72;5046425;28;20545;-73
2022/06/15 09:22:08;;;;;;;5.60;1.98;;;;;;;22.71;74.07;96713.44;5047108;28;20761;-75
2022/06/15 09:24:56;;;;;;;5.72;2.55;;;;;;;22.93;74.13;96704.34;5046954;28;20118;-73
2022/06/15 09:27:28;;;;;;;4.68;1.98;;;;;;;23.06;71.21;96698.72;5045230;28;20051;-72
2022/06/15 09:30:07;;;;;;;10.13;2.58;;;;;;;23.09;67.26;96705.44;5046317;28;20140;-74
2022/06/15 09:32:40;;;;;;;7.28;2.60;;;;;;;23.25;68.23;96705.75;5045176;28;20480;-73
2022/06/15 09:35:16;;;;;;;4.43;2.28;;;;;;;23.40;69.51;96707.16;5050009;28;20106;-72
2022/06/15 09:37:46;;;;;;;10.73;3.38;;;;;;;23.47;66.31;96707.47;5046786;28;20067;-74
2022/06/15 09:40:14;;;;;;;6.53;2.67;;;;;;;23.26;54.82;96705.41;5045494;28;20066;-73
2022/06/15 09:43:01;;;;;;;7.95;2.70;;;;;;;23.37;60.24;96694.97;5048805;28;20397;-72
2022/06/15 09:45:32;;;;;;;4.95;2.17;;;;;;;23.49;55.65;96694.28;5043777;28;20668;-72
2022/06/15 09:47:57;;;;;;;;;;;;;;;23.63;61.42;96695.72;5049244;28;20089;-72
2022/06/15 09:50:43;;;;;;;5.55;2.60;;;;;;;23.77;68.42;96695.50;5047893;28;19995;-73
2022/06/15 09:53:27;;;;;;;7.35;2.70;;;;;;;23.86;58.67;96685.34;5047259;28;20252;-73
2022/06/15 09:55:56;;;;;;;8.00;2.83;;;;;;;24.05;58.35;96689.59;5050700;28;20043;-72
2022/06/15 09:58:31;;;;;;;6.57;2.85;;;;;;;24.12;53.51;96684.41;5046334;28;20104;-73
2022/06/15 10:00:57;;;;;;;8.95;2.38;;;;;;;24.28;57.77;96692.81;5048252;28;20063;-72
2022/06/15 10:03:30;;;;;;;6.28;2.50;;;;;;;24.24;59.55;96691.91;5048362;28;20404;-73
2022/06/15 10:06:14;;;;;;;4.78;2.53;;;;;;;24.20;54.94;96691.75;5047504;28;20045;-73
2022/06/15 10:08:40;;;;;;;7.80;2.65;;;;;;;24.33;53.11;96692.69;5047791;28;20097;-72
2022/06/15 10:11:14;;;;;;;6.38;2.80;;;;;;;24.33;52.76;96690.75;5049258;28;20349;-73
2022/06/15 10:13:41;;;;;;;8.65;2.70;;;;;;;24.52;59.37;96693.03;5060899;28;20043;-73
2022/06/15 10:16:30;;;;;;;10.63;2.60;;;;;;;24.85;55.36;96695.03;5048061;28;20511;-74
2022/06/15 10:18:58;;;;;;;7.10;2.72;;;;;;;25.07;49.27;96691.97;5059755;28;20057;-72
2022/06/15 10:21:28;;;;;;;7.65;2.60;;;;;;;25.11;48.89;96687.41;5048507;28;20519;-73
2022/06/15 10:23:59;;;;;;;8.40;2.70;;;;;;;25.24;56.01;96675.38;5047944;28;20122;-72
2022/06/15 10:26:30;;;;;;;6.85;3.08;;;;;;;25.45;53.44;96682.75;5048750;28;20547;-74
2022/06/15 10:28:57;;;;;;;11.27;3.17;;;;;;;25.64;53.49;96683.00;4694974;28;9999841;-72
2022/06/15 10:31:32;;;;;;;9.82;3.13;;;;;;;25.82;50.08;96687.16;5041448;28;20136;-72
2022/06/15 10:34:16;;;;;;;8.02;2.60;;;;;;;25.86;54.70;96672.78;5041984;28;20040;-72
2022/06/15 10:36:41;;;;;;;7.93;2.95;;;;;;;25.92;52.04;96677.69;5045279;28;20036;-72
2022/06/15 10:39:21;;;;;;;8.40;3.20;;;;;;;25.95;48.31;96676.22;5044586;28;20037;-73
2022/06/15 10:41:47;;;;;;;9.70;2.80;;;;;;;26.09;48.61;96677.47;5062121;28;20051;-73
2022/06/15 10:44:27;;;;;;;10.57;3.00;;;;;;;26.00;47.51;96685.00;5043246;28;20531;-72
2022/06/15 10:47:03;;;;;;;8.35;3.35;;;;;;;26.17;50.08;96678.50;5043873;28;20566;-72
2022/06/15 10:49:33;;;;;;;7.25;3.00;;;;;;;26.30;45.20;96691.06;5043897;28;20032;-72
2022/06/15 10:51:59;;;;;;;6.13;2.80;;;;;;;26.51;43.85;96681.91;5045052;28;20113;-74
2022/06/15 11:03:22;;;;;;;5.63;2.92;;;;;;;27.43;40.98;96675.50;5043491;28;20040;-72
2022/06/15 11:05:51;;;;;;;8.27;2.90;;;;;;;27.36;41.35;96673.38;5044364;28;20459;-73
2022/06/15 11:08:41;;;;;;;7.43;3.20;;;;;;;26.79;40.04;96674.50;5042556;28;20048;-72
2022/06/15 11:11:26;;;;;;;9.90;3.10;;;;;;;27.03;44.38;96659.09;5045420;28;20044;-73
2022/06/15 11:14:06;;;;;;;5.97;2.70;;;;;;;27.01;42.31;96667.69;5046874;28;20523;-74
2022/06/15 11:19:25;;;;;;;4.82;2.70;;;;;;;27.37;37.70;96665.94;5043207;28;20044;-71
2022/06/15 11:21:58;;;;;;;5.95;2.53;;;;;;;28.22;42.83;96659.03;5048235;28;20363;-73
2022/06/15 11:24:39;;;;;;;5.68;3.00;;;;;;;29.08;36.77;96669.97;5044845;28;20392;-73
2022/06/15 11:27:24;;;;;;;6.70;2.75;;;;;;;29.35;33.31;96668.16;5045728;28;20076;-73
2022/06/15 11:29:54;;;;;;;4.95;2.80;;;;;;;30.56;33.69;96661.06;5026107;28;20539;-72
2022/06/15 11:32:32;;;;;;;6.57;2.88;;;;;;;32.13;31.46;96655.31;5046212;28;20135;-72
2022/06/15 11:35:22;;;;;;;7.95;3.00;;;;;;;34.13;26.62;96662.44;5065063;28;20083;-72
2022/06/15 11:37:57;;;;;;;9.32;3.22;;;;;;;34.67;25.61;96648.50;5063757;28;20044;-73
2022/06/15 11:40:41;;;;;;;8.75;3.45;;;;;;;33.84;27.93;96656.06;5046347;28;20040;-74
2022/06/15 11:43:27;;;;;;;7.97;3.13;;;;;;;34.19;26.72;96663.66;5048478;28;20045;-72
2022/06/15 11:46:10;;;;;;;7.72;2.60;;;;;;;34.24;25.71;96654.09;5050058;28;20510;-74
2022/06/15 11:48:57;;;;;;;10.77;3.22;;;;;;;36.18;24.05;96655.63;5049285;28;20048;-73
2022/06/15 11:51:22;;;;;;;8.10;2.83;;;;;;;35.45;24.15;96660.13;5050707;28;20071;-73
2022/06/15 11:54:03;;;;;;;6.75;3.25;;;;;;;38.23;20.98;96652.66;5046993;28;20132;-72
2022/06/15 11:56:37;;;;;;;7.78;2.70;;;;;;;39.64;20.15;96645.47;5050610;28;20624;-73
2022/06/15 11:59:34;;;;;;;9.38;3.30;;;;;;;37.95;20.42;96643.53;5049495;28;20048;-72
2022/06/15 12:02:08;;;;;;;7.70;3.10;;;;;;;39.94;20.94;96651.97;5048044;28;20056;-75
2022/06/15 12:04:48;;;;;;;7.05;3.05;;;;;;;39.95;20.37;96645.94;5048126;28;20044;-74
2022/06/15 12:07:37;;;;;;;7.00;3.30;;;;;;;42.06;17.72;96646.38;5049347;28;20086;-72